createdAt,value
2018-08-12T00:00:33.116Z,25.60
2018-08-12T00:01:33.092Z,20.50
2018-08-12T00:02:33.093Z,16.50
2018-08-12T00:03:33.050Z,14.20
2018-08-12T00:04:32.996Z,13.60
2018-08-12T00:05:32.975Z,12.50
2018-08-12T00:06:33.312Z,11.80
2018-08-12T00:07:32.922Z,9.20
2018-08-12T00:08:32.879Z,8.00
2018-08-12T00:09:32.862Z,6.40
2018-08-12T00:10:33.125Z,7.20
2018-08-12T00:11:32.790Z,6.40
2018-08-12T00:12:32.769Z,5.10
2018-08-12T00:13:32.755Z,5.80
2018-08-12T00:14:32.732Z,6.20
2018-08-12T00:15:32.711Z,5.50
2018-08-12T00:16:32.651Z,5.50
2018-08-12T00:17:32.626Z,5.20
2018-08-12T00:18:32.585Z,4.90
2018-08-12T00:19:32.558Z,5.20
2018-08-12T00:20:32.529Z,4.50
2018-08-12T00:21:32.508Z,5.10
2018-08-12T00:22:32.466Z,4.40
2018-08-12T00:23:32.644Z,4.20
2018-08-12T00:24:32.428Z,4.30
2018-08-12T00:25:32.385Z,4.60
2018-08-12T00:26:32.366Z,4.50
2018-08-12T00:27:32.323Z,5.70
2018-08-12T00:28:32.305Z,5.60
2018-08-12T00:29:32.270Z,5.00
2018-08-12T00:30:32.320Z,4.50
2018-08-12T00:31:32.207Z,5.80
2018-08-12T00:32:32.179Z,4.70
2018-08-12T00:33:32.182Z,5.60
2018-08-12T00:34:32.113Z,3.80
2018-08-12T00:35:32.080Z,3.70
2018-08-12T00:36:32.055Z,4.10
2018-08-12T00:37:32.022Z,5.80
2018-08-12T00:38:31.994Z,5.10
2018-08-12T00:39:32.209Z,3.90
2018-08-12T00:40:31.934Z,3.90
2018-08-12T00:41:31.914Z,5.20
2018-08-12T00:42:31.873Z,4.70
2018-08-12T00:44:57.117Z,3.70
2018-08-12T00:45:56.900Z,3.90
2018-08-12T00:46:56.893Z,3.90
2018-08-12T00:47:56.838Z,4.30
2018-08-12T00:48:57.009Z,4.20
2018-08-12T00:49:56.767Z,4.30
2018-08-12T00:50:56.741Z,3.70
2018-08-12T00:51:56.720Z,3.60
2018-08-12T00:52:56.685Z,4.00
2018-08-12T00:53:56.648Z,3.70
2018-08-12T00:54:56.634Z,3.50
2018-08-12T00:55:56.750Z,3.70
2018-08-12T00:56:56.569Z,3.70
2018-08-12T00:57:56.535Z,3.90
2018-08-12T00:58:56.515Z,4.00
2018-08-12T00:59:56.480Z,4.00
2018-08-12T01:00:56.449Z,3.50
2018-08-12T01:01:56.436Z,3.70
2018-08-12T01:02:56.387Z,3.80
2018-08-12T01:03:56.349Z,3.80
2018-08-12T01:04:56.328Z,3.30
2018-08-12T01:05:56.298Z,3.60
2018-08-12T01:06:56.271Z,4.50
2018-08-12T01:07:56.231Z,3.80
2018-08-12T01:08:56.203Z,3.80
2018-08-12T01:09:56.181Z,3.40
2018-08-12T01:10:56.138Z,3.80
2018-08-12T01:11:56.112Z,4.20
2018-08-12T01:12:56.106Z,4.20
2018-08-12T01:13:56.060Z,4.50
2018-08-12T01:14:56.042Z,4.20
2018-08-12T01:15:55.998Z,4.40
2018-08-12T01:16:55.967Z,4.60
2018-08-12T01:17:55.937Z,4.50
2018-08-12T01:18:55.912Z,4.30
2018-08-12T01:19:55.867Z,5.30
2018-08-12T01:20:55.996Z,4.70
2018-08-12T01:21:55.952Z,5.30
2018-08-12T01:22:55.784Z,5.80
2018-08-12T01:23:55.756Z,5.30
2018-08-12T01:24:55.717Z,5.40
2018-08-12T01:25:55.952Z,5.70
2018-08-12T01:26:55.659Z,4.40
2018-08-12T01:28:55.595Z,4.20
2018-08-12T01:29:55.577Z,5.40
2018-08-12T01:30:55.543Z,6.00
2018-08-12T01:31:55.505Z,5.30
2018-08-12T01:33:55.453Z,4.30
2018-08-12T01:34:55.428Z,4.90
2018-08-12T01:35:55.410Z,5.30
2018-08-12T01:36:55.363Z,4.70
2018-08-12T01:37:55.325Z,5.60
2018-08-12T01:38:55.323Z,5.10
2018-08-12T01:39:55.273Z,4.70
2018-08-12T01:40:55.233Z,4.60
2018-08-12T01:41:55.208Z,5.20
2018-08-12T01:42:55.181Z,5.20
2018-08-12T01:43:55.139Z,4.80
2018-08-12T01:44:55.150Z,4.10
2018-08-12T01:45:55.084Z,4.90
2018-08-12T01:46:55.051Z,5.10
2018-08-12T01:47:55.025Z,4.70
2018-08-12T01:48:54.991Z,4.70
2018-08-12T01:49:54.957Z,4.70
2018-08-12T01:50:54.938Z,4.50
2018-08-12T01:51:54.907Z,5.00
2018-08-12T01:52:54.880Z,4.90
2018-08-12T01:53:54.851Z,4.80
2018-08-12T01:54:54.804Z,4.10
2018-08-12T01:55:54.777Z,4.50
2018-08-12T01:56:55.320Z,4.60
2018-08-12T01:57:54.714Z,4.00
2018-08-12T01:58:54.848Z,3.90
2018-08-12T01:59:54.676Z,3.90
2018-08-12T02:00:54.622Z,4.10
2018-08-12T02:01:54.611Z,3.70
2018-08-12T02:02:54.592Z,4.20
2018-08-12T02:03:54.547Z,4.20
2018-08-12T02:04:54.602Z,3.30
2018-08-12T02:05:54.476Z,3.70
2018-08-12T02:06:54.473Z,3.90
2018-08-12T02:07:54.417Z,3.60
2018-08-12T02:08:54.381Z,3.40
2018-08-12T02:09:54.346Z,3.70
2018-08-12T02:10:54.333Z,3.50
2018-08-12T02:11:54.284Z,3.60
2018-08-12T02:12:54.275Z,4.30
2018-08-12T02:13:54.237Z,3.90
2018-08-12T02:14:54.266Z,3.70
2018-08-12T02:15:54.172Z,3.70
2018-08-12T02:16:54.135Z,3.50
2018-08-12T02:17:54.103Z,3.90
2018-08-12T02:18:54.068Z,4.00
2018-08-12T02:19:54.102Z,3.70
2018-08-12T02:20:54.021Z,3.50
2018-08-12T02:21:53.988Z,3.40
2018-08-12T02:22:53.954Z,4.90
2018-08-12T02:23:53.926Z,4.00
2018-08-12T02:25:53.865Z,2.70
2018-08-12T02:26:53.871Z,3.40
2018-08-12T02:27:53.795Z,3.80
2018-08-12T02:28:53.763Z,3.70
2018-08-12T02:29:53.747Z,3.60
2018-08-12T02:30:53.864Z,3.60
2018-08-12T02:31:53.677Z,3.70
2018-08-12T02:32:53.650Z,3.80
2018-08-12T02:33:53.622Z,3.70
2018-08-12T02:34:53.630Z,4.10
2018-08-12T02:35:53.557Z,3.80
2018-08-12T02:36:53.672Z,3.40
2018-08-12T02:37:53.496Z,3.30
2018-08-12T02:38:53.462Z,4.10
2018-08-12T02:39:53.453Z,3.40
2018-08-12T02:40:53.401Z,3.50
2018-08-12T02:41:53.372Z,3.30
2018-08-12T02:42:53.331Z,3.30
2018-08-12T02:43:53.302Z,3.60
2018-08-12T02:44:53.277Z,3.40
2018-08-12T02:45:53.246Z,4.00
2018-08-12T02:46:53.212Z,3.10
2018-08-12T02:47:53.180Z,3.10
2018-08-12T02:48:53.154Z,3.30
2018-08-12T02:49:53.117Z,3.40
2018-08-12T02:50:53.106Z,3.40
2018-08-12T02:52:53.032Z,2.60
2018-08-12T02:53:53.003Z,3.40
2018-08-12T02:54:52.975Z,3.80
2018-08-12T02:55:52.933Z,3.40
2018-08-12T02:56:52.917Z,4.10
2018-08-12T02:57:52.908Z,3.30
2018-08-12T02:58:52.860Z,3.30
2018-08-12T02:59:52.824Z,3.60
2018-08-12T03:00:52.787Z,3.50
2018-08-12T03:01:52.756Z,3.30
2018-08-12T03:02:52.893Z,3.40
2018-08-12T03:03:52.689Z,2.90
2018-08-12T03:04:52.661Z,3.50
2018-08-12T03:05:52.636Z,3.00
2018-08-12T03:06:52.592Z,3.50
2018-08-12T03:07:52.560Z,3.20
2018-08-12T03:08:52.539Z,3.00
2018-08-12T03:09:52.537Z,3.40
2018-08-12T03:10:52.471Z,3.40
2018-08-12T03:11:52.446Z,3.90
2018-08-12T03:12:52.415Z,3.40
2018-08-12T03:13:52.384Z,3.10
2018-08-12T03:14:52.368Z,2.90
2018-08-12T03:15:52.332Z,3.60
2018-08-12T03:16:52.298Z,3.10
2018-08-12T03:17:52.253Z,3.30
2018-08-12T03:18:52.227Z,2.80
2018-08-12T03:19:52.202Z,3.10
2018-08-12T03:20:52.160Z,3.10
2018-08-12T03:21:52.135Z,3.20
2018-08-12T03:22:52.118Z,3.60
2018-08-12T03:23:52.078Z,3.10
2018-08-12T03:24:52.038Z,3.20
2018-08-12T03:25:52.007Z,3.10
2018-08-12T03:26:51.979Z,3.20
2018-08-12T03:27:51.949Z,3.70
2018-08-12T03:28:51.914Z,3.50
2018-08-12T03:29:51.880Z,3.30
2018-08-12T03:30:51.872Z,3.30
2018-08-12T03:31:51.822Z,3.30
2018-08-12T03:32:51.795Z,3.60
2018-08-12T03:33:51.759Z,3.40
2018-08-12T03:34:52.035Z,3.20
2018-08-12T03:35:51.694Z,3.80
2018-08-12T03:36:51.664Z,3.20
2018-08-12T03:37:51.647Z,3.20
2018-08-12T03:38:51.604Z,3.50
2018-08-12T03:39:51.578Z,3.40
2018-08-12T03:40:51.543Z,3.10
2018-08-12T03:41:51.524Z,3.20
2018-08-12T03:42:51.485Z,3.20
2018-08-12T03:43:51.461Z,3.60
2018-08-12T03:44:51.427Z,3.20
2018-08-12T03:45:51.393Z,3.80
2018-08-12T03:46:51.349Z,3.30
2018-08-12T03:47:51.324Z,3.20
2018-08-12T03:48:51.307Z,3.50
2018-08-12T03:49:51.276Z,4.20
2018-08-12T03:50:51.346Z,3.90
2018-08-12T03:51:51.197Z,3.30
2018-08-12T03:52:51.169Z,3.40
2018-08-12T03:53:51.148Z,3.10
2018-08-12T03:54:51.198Z,3.70
2018-08-12T03:55:51.078Z,3.60
2018-08-12T03:56:51.043Z,3.60
2018-08-12T03:57:51.011Z,3.30
2018-08-12T03:58:50.988Z,3.40
2018-08-12T03:59:50.949Z,2.80
2018-08-12T04:00:50.919Z,3.20
2018-08-12T04:01:50.894Z,3.30
2018-08-12T04:02:50.886Z,3.10
2018-08-12T04:03:50.820Z,2.80
2018-08-12T04:04:50.798Z,2.40
2018-08-12T04:05:50.760Z,3.10
2018-08-12T04:06:50.873Z,3.10
2018-08-12T04:07:50.693Z,3.70
2018-08-12T04:08:50.662Z,3.10
2018-08-12T04:09:50.630Z,3.00
2018-08-12T04:10:50.603Z,2.80
2018-08-12T04:11:50.570Z,3.30
2018-08-12T04:12:50.549Z,2.90
2018-08-12T04:13:50.509Z,3.00
2018-08-12T04:14:50.483Z,3.20
2018-08-12T04:15:50.447Z,3.30
2018-08-12T04:16:50.410Z,3.10
2018-08-12T04:17:50.378Z,3.40
2018-08-12T04:18:50.363Z,3.90
2018-08-12T04:19:50.323Z,3.60
2018-08-12T04:20:50.291Z,3.20
2018-08-12T04:21:50.271Z,3.40
2018-08-12T04:22:50.219Z,3.30
2018-08-12T04:23:50.193Z,3.70
2018-08-12T04:24:50.162Z,3.40
2018-08-12T04:25:50.141Z,3.10
2018-08-12T04:26:50.093Z,3.20
2018-08-12T04:27:50.078Z,3.40
2018-08-12T04:28:50.037Z,3.40
2018-08-12T04:29:50.010Z,3.40
2018-08-12T04:30:49.986Z,3.00
2018-08-12T04:31:49.935Z,3.10
2018-08-12T04:32:49.904Z,3.40
2018-08-12T04:33:49.891Z,3.00
2018-08-12T04:34:49.843Z,3.50
2018-08-12T04:35:49.811Z,3.20
2018-08-12T04:36:49.780Z,3.80
2018-08-12T04:37:49.754Z,3.60
2018-08-12T04:38:49.962Z,3.70
2018-08-12T04:39:49.703Z,3.80
2018-08-12T04:40:49.657Z,3.30
2018-08-12T04:41:49.637Z,4.00
2018-08-12T04:42:49.615Z,3.50
2018-08-12T04:43:49.564Z,3.20
2018-08-12T04:44:49.533Z,3.20
2018-08-12T04:45:49.498Z,3.30
2018-08-12T04:46:49.472Z,3.50
2018-08-12T04:47:49.430Z,3.80
2018-08-12T04:48:49.414Z,3.90
2018-08-12T04:49:49.417Z,3.40
2018-08-12T04:50:49.347Z,3.30
2018-08-12T04:51:49.301Z,3.30
2018-08-12T04:52:49.273Z,3.60
2018-08-12T04:53:49.241Z,3.70
2018-08-12T04:54:49.205Z,3.10
2018-08-12T04:55:49.180Z,3.60
2018-08-12T04:56:49.149Z,3.20
2018-08-12T04:57:49.142Z,3.30
2018-08-12T04:58:49.079Z,3.10
2018-08-12T04:59:49.099Z,3.60
2018-08-12T05:00:49.012Z,3.40
2018-08-12T05:01:48.990Z,3.60
2018-08-12T05:02:48.955Z,3.40
2018-08-12T05:03:48.924Z,2.90
2018-08-12T05:04:48.893Z,3.10
2018-08-12T05:05:48.862Z,3.20
2018-08-12T05:06:48.822Z,3.30
2018-08-12T05:07:48.796Z,3.10
2018-08-12T05:08:48.765Z,3.10
2018-08-12T05:09:48.737Z,3.20
2018-08-12T05:10:48.821Z,3.10
2018-08-12T05:11:48.677Z,3.40
2018-08-12T05:12:48.645Z,3.30
2018-08-12T05:13:48.599Z,3.70
2018-08-12T05:14:48.571Z,2.80
2018-08-12T05:15:48.544Z,3.10
2018-08-12T05:16:48.508Z,3.40
2018-08-12T05:17:48.480Z,3.40
2018-08-12T05:18:48.460Z,3.50
2018-08-12T05:19:48.408Z,3.40
2018-08-12T05:20:48.371Z,3.90
2018-08-12T05:21:48.344Z,3.10
2018-08-12T05:22:48.308Z,3.10
2018-08-12T05:23:48.286Z,4.00
2018-08-12T05:24:48.244Z,4.20
2018-08-12T05:25:48.222Z,4.20
2018-08-12T05:26:48.180Z,4.20
2018-08-12T05:27:48.151Z,3.70
2018-08-12T05:28:48.115Z,3.70
2018-08-12T05:29:48.096Z,3.50
2018-08-12T05:30:48.057Z,3.60
2018-08-12T05:31:48.022Z,4.10
2018-08-12T05:32:48.001Z,4.20
2018-08-12T05:33:47.959Z,4.10
2018-08-12T05:34:47.919Z,3.80
2018-08-12T05:35:47.907Z,3.40
2018-08-12T05:36:47.856Z,3.80
2018-08-12T05:37:47.826Z,4.10
2018-08-12T05:38:47.802Z,4.10
2018-08-12T05:39:47.761Z,3.90
2018-08-12T05:40:47.726Z,3.90
2018-08-12T05:41:47.697Z,3.60
2018-08-12T05:42:47.664Z,3.40
2018-08-12T05:43:47.628Z,3.60
2018-08-12T05:44:47.597Z,4.30
2018-08-12T05:45:47.583Z,3.80
2018-08-12T05:46:47.659Z,3.60
2018-08-12T05:47:47.506Z,3.90
2018-08-12T05:48:47.475Z,3.30
2018-08-12T05:49:47.443Z,3.90
2018-08-12T05:50:47.400Z,4.60
2018-08-12T05:51:47.370Z,4.20
2018-08-12T05:52:47.371Z,4.50
2018-08-12T05:53:47.310Z,5.00
2018-08-12T05:54:47.269Z,4.50
2018-08-12T05:55:47.238Z,4.40
2018-08-12T05:56:47.215Z,4.40
2018-08-12T05:57:47.196Z,4.60
2018-08-12T05:58:47.141Z,4.70
2018-08-12T05:59:47.124Z,4.70
2018-08-12T06:00:47.088Z,4.00
2018-08-12T06:01:47.093Z,4.20
2018-08-12T06:02:47.026Z,4.10
2018-08-12T06:03:46.977Z,4.70
2018-08-12T06:04:46.948Z,4.50
2018-08-12T06:05:46.919Z,4.40
2018-08-12T06:06:46.885Z,4.00
2018-08-12T06:07:47.060Z,3.80
2018-08-12T06:08:46.831Z,3.70
2018-08-12T06:09:46.794Z,3.50
2018-08-12T06:10:46.749Z,4.70
2018-08-12T06:11:46.731Z,4.10
2018-08-12T06:12:46.683Z,4.40
2018-08-12T06:13:46.705Z,3.80
2018-08-12T06:14:46.629Z,3.60
2018-08-12T06:15:46.614Z,3.50
2018-08-12T06:16:46.565Z,3.70
2018-08-12T06:17:46.523Z,3.70
2018-08-12T06:18:46.500Z,3.90
2018-08-12T06:19:46.461Z,3.90
2018-08-12T06:20:46.423Z,3.90
2018-08-12T06:21:46.404Z,3.20
2018-08-12T06:22:46.362Z,3.60
2018-08-12T06:23:46.338Z,3.90
2018-08-12T06:24:46.296Z,3.90
2018-08-12T06:25:46.308Z,4.00
2018-08-12T06:26:46.229Z,3.30
2018-08-12T06:27:46.210Z,4.10
2018-08-12T06:28:46.176Z,4.00
2018-08-12T06:29:46.141Z,3.40
2018-08-12T06:30:46.117Z,3.50
2018-08-12T06:31:46.081Z,4.00
2018-08-12T06:32:46.052Z,4.20
2018-08-12T06:33:46.015Z,4.00
2018-08-12T06:34:45.969Z,3.90
2018-08-12T06:35:45.935Z,3.90
2018-08-12T06:36:46.021Z,3.90
2018-08-12T06:37:45.878Z,3.40
2018-08-12T06:38:45.840Z,3.80
2018-08-12T06:39:46.148Z,4.30
2018-08-12T06:40:45.791Z,3.60
2018-08-12T06:41:45.743Z,4.30
2018-08-12T06:42:45.709Z,3.80
2018-08-12T06:43:45.676Z,3.90
2018-08-12T06:44:45.640Z,3.90
2018-08-12T06:45:45.610Z,3.50
2018-08-12T06:46:45.574Z,3.80
2018-08-12T06:47:45.543Z,4.00
2018-08-12T06:48:45.512Z,4.00
2018-08-12T06:49:45.475Z,3.30
2018-08-12T06:50:45.450Z,3.80
2018-08-12T06:51:45.560Z,4.00
2018-08-12T06:52:45.379Z,3.30
2018-08-12T06:53:45.346Z,3.80
2018-08-12T06:54:45.316Z,4.00
2018-08-12T06:55:45.276Z,3.60
2018-08-12T06:56:45.251Z,3.90
2018-08-12T06:57:45.218Z,3.60
2018-08-12T06:58:45.176Z,3.70
2018-08-12T06:59:45.176Z,3.60
2018-08-12T07:00:45.110Z,3.40
2018-08-12T07:01:45.093Z,3.50
2018-08-12T07:02:45.053Z,3.80
2018-08-12T07:03:45.016Z,3.60
2018-08-12T07:04:44.986Z,4.00
2018-08-12T07:05:44.948Z,3.90
2018-08-12T07:06:44.918Z,3.30
2018-08-12T07:07:44.887Z,4.00
2018-08-12T07:08:44.854Z,3.60
2018-08-12T07:09:44.814Z,3.60
2018-08-12T07:10:44.786Z,3.70
2018-08-12T07:11:44.748Z,3.50
2018-08-12T07:12:44.716Z,4.00
2018-08-12T07:13:44.695Z,3.20
2018-08-12T07:14:44.661Z,3.30
2018-08-12T07:15:44.626Z,3.60
2018-08-12T07:16:44.590Z,3.40
2018-08-12T07:17:44.554Z,3.20
2018-08-12T07:18:44.521Z,3.50
2018-08-12T07:19:44.489Z,3.60
2018-08-12T07:20:44.451Z,3.60
2018-08-12T07:21:44.528Z,3.40
2018-08-12T07:22:44.413Z,3.20
2018-08-12T07:23:44.376Z,3.10
2018-08-12T07:24:44.350Z,3.20
2018-08-12T07:25:44.373Z,3.00
2018-08-12T07:26:44.301Z,3.60
2018-08-12T07:27:44.216Z,3.10
2018-08-12T07:28:44.196Z,3.30
2018-08-12T07:29:44.157Z,3.60
2018-08-12T07:30:44.120Z,3.00
2018-08-12T07:31:44.088Z,2.90
2018-08-12T07:32:44.105Z,3.10
2018-08-12T07:33:44.017Z,3.70
2018-08-12T07:34:43.984Z,3.50
2018-08-12T07:35:43.956Z,3.50
2018-08-12T07:36:43.931Z,3.10
2018-08-12T07:37:43.998Z,3.80
2018-08-12T07:38:43.871Z,4.00
2018-08-12T07:39:43.843Z,3.30
2018-08-12T07:40:43.782Z,3.40
2018-08-12T07:41:43.754Z,3.40
2018-08-12T07:42:43.724Z,3.00
2018-08-12T07:43:43.887Z,3.60
2018-08-12T07:44:43.662Z,3.40
2018-08-12T07:45:43.621Z,3.40
2018-08-12T07:46:43.585Z,3.20
2018-08-12T07:47:43.556Z,2.80
2018-08-12T07:48:43.559Z,3.40
2018-08-12T07:49:43.485Z,3.20
2018-08-12T07:50:43.448Z,3.00
2018-08-12T07:51:43.417Z,3.30
2018-08-12T07:52:43.385Z,3.30
2018-08-12T07:53:43.351Z,3.10
2018-08-12T07:55:43.544Z,2.30
2018-08-12T07:56:43.250Z,2.90
2018-08-12T07:57:43.223Z,3.10
2018-08-12T07:58:43.184Z,2.70
2018-08-12T07:59:43.349Z,3.30
2018-08-12T08:00:43.119Z,2.90
2018-08-12T08:01:43.086Z,2.50
2018-08-12T08:02:43.057Z,3.70
2018-08-12T08:03:43.017Z,3.00
2018-08-12T08:04:42.989Z,3.00
2018-08-12T08:05:42.946Z,3.30
2018-08-12T08:06:42.921Z,3.20
2018-08-12T08:07:42.886Z,2.80
2018-08-12T08:08:42.858Z,3.30
2018-08-12T08:09:42.822Z,3.70
2018-08-12T08:10:42.981Z,3.10
2018-08-12T08:11:42.751Z,3.40
2018-08-12T08:12:42.714Z,3.10
2018-08-12T08:13:42.683Z,3.10
2018-08-12T08:14:42.647Z,3.50
2018-08-12T08:15:42.612Z,4.40
2018-08-12T08:16:42.930Z,3.30
2018-08-12T08:17:42.549Z,3.00
2018-08-12T08:18:42.510Z,3.20
2018-08-12T08:19:42.526Z,3.30
2018-08-12T08:20:42.442Z,2.70
2018-08-12T08:21:42.410Z,2.60
2018-08-12T08:22:42.581Z,2.80
2018-08-12T08:23:42.345Z,3.00
2018-08-12T08:24:42.312Z,2.70
2018-08-12T08:25:42.376Z,3.10
2018-08-12T08:26:42.241Z,3.10
2018-08-12T08:27:42.234Z,2.60
2018-08-12T08:28:42.179Z,3.00
2018-08-12T08:29:42.139Z,2.80
2018-08-12T08:30:42.112Z,3.10
2018-08-12T08:31:42.240Z,3.00
2018-08-12T08:32:42.037Z,2.90
2018-08-12T08:33:42.278Z,2.90
2018-08-12T08:34:41.972Z,3.50
2018-08-12T08:35:41.941Z,2.80
2018-08-12T08:36:41.950Z,2.60
2018-08-12T08:37:41.878Z,2.90
2018-08-12T08:38:41.836Z,3.20
2018-08-12T08:39:42.204Z,3.10
2018-08-12T08:40:41.768Z,2.80
2018-08-12T08:41:41.736Z,3.20
2018-08-12T08:42:41.701Z,3.00
2018-08-12T08:43:41.671Z,3.20
2018-08-12T08:44:41.649Z,3.00
2018-08-12T08:45:41.801Z,3.00
2018-08-12T08:46:41.565Z,2.80
2018-08-12T08:47:41.532Z,3.50
2018-08-12T08:48:41.503Z,3.50
2018-08-12T08:49:41.518Z,8.80
2018-08-12T08:50:41.506Z,4.20
2018-08-12T08:51:41.412Z,3.90
2018-08-12T08:52:41.376Z,3.50
2018-08-12T08:53:41.340Z,3.60
2018-08-12T08:54:41.294Z,3.00
2018-08-12T08:55:41.311Z,2.90
2018-08-12T08:56:41.223Z,2.50
2018-08-12T08:57:41.197Z,3.00
2018-08-12T08:58:41.167Z,3.00
2018-08-12T08:59:41.132Z,3.30
2018-08-12T09:00:41.102Z,3.40
2018-08-12T09:01:41.361Z,3.20
2018-08-12T09:02:41.021Z,3.30
2018-08-12T09:03:40.989Z,3.10
2018-08-12T09:04:40.954Z,3.10
2018-08-12T09:05:40.920Z,3.40
2018-08-12T09:06:40.886Z,3.50
2018-08-12T09:07:41.055Z,3.30
2018-08-12T09:08:41.106Z,3.50
2018-08-12T09:09:40.792Z,3.20
2018-08-12T09:10:40.761Z,2.80
2018-08-12T09:11:40.717Z,3.30
2018-08-12T09:12:40.679Z,4.20
2018-08-12T09:13:40.846Z,3.50
2018-08-12T09:14:40.620Z,3.20
2018-08-12T09:15:40.583Z,3.70
2018-08-12T09:16:40.549Z,3.60
2018-08-12T09:17:40.517Z,3.90
2018-08-12T09:18:40.482Z,3.30
2018-08-12T09:19:40.445Z,3.30
2018-08-12T09:20:40.408Z,3.20
2018-08-12T09:21:40.383Z,3.70
2018-08-12T09:22:40.341Z,3.90
2018-08-12T09:23:40.305Z,3.50
2018-08-12T09:24:40.273Z,3.70
2018-08-12T09:25:40.246Z,3.90
2018-08-12T09:26:40.204Z,3.70
2018-08-12T09:27:40.172Z,3.40
2018-08-12T09:28:40.135Z,2.60
2018-08-12T09:29:40.501Z,2.90
2018-08-12T09:30:40.068Z,2.70
2018-08-12T09:31:40.032Z,3.10
2018-08-12T09:32:40.012Z,3.10
2018-08-12T09:33:39.964Z,2.80
2018-08-12T09:34:39.930Z,3.00
2018-08-12T09:35:40.100Z,3.00
2018-08-12T09:36:39.862Z,2.80
2018-08-12T09:37:39.837Z,3.90
2018-08-12T09:38:39.793Z,3.10
2018-08-12T09:39:39.767Z,3.40
2018-08-12T09:40:39.810Z,3.80
2018-08-12T09:41:39.943Z,3.40
2018-08-12T09:42:39.660Z,3.00
2018-08-12T09:43:39.626Z,3.30
2018-08-12T09:44:39.588Z,2.70
2018-08-12T09:45:39.569Z,2.90
2018-08-12T09:46:39.516Z,2.90
2018-08-12T09:47:39.496Z,3.10
2018-08-12T09:48:39.450Z,3.20
2018-08-12T09:49:39.418Z,3.30
2018-08-12T09:50:39.380Z,3.60
2018-08-12T09:51:39.413Z,3.60
2018-08-12T09:52:39.318Z,3.00
2018-08-12T09:53:39.281Z,2.60
2018-08-12T09:54:39.265Z,2.90
2018-08-12T09:55:39.209Z,3.00
2018-08-12T09:56:39.173Z,3.30
2018-08-12T09:57:39.395Z,3.40
2018-08-12T09:58:39.107Z,3.40
2018-08-12T09:59:39.069Z,3.20
2018-08-12T10:00:39.040Z,3.90
2018-08-12T10:01:39.010Z,3.00
2018-08-12T10:02:38.970Z,3.40
2018-08-12T10:03:39.283Z,2.90
2018-08-12T10:04:38.899Z,3.90
2018-08-12T10:05:38.902Z,3.50
2018-08-12T10:06:38.927Z,3.30
2018-08-12T10:07:38.803Z,3.20
2018-08-12T10:08:38.759Z,3.30
2018-08-12T10:09:38.936Z,3.40
2018-08-12T10:10:38.695Z,3.70
2018-08-12T10:11:38.668Z,3.50
2018-08-12T10:12:38.631Z,5.10
2018-08-12T10:13:38.594Z,4.10
2018-08-12T10:14:38.559Z,3.60
2018-08-12T10:15:38.551Z,4.10
2018-08-12T10:16:38.493Z,4.50
2018-08-12T10:17:38.454Z,4.20
2018-08-12T10:18:38.429Z,3.70
2018-08-12T10:19:38.386Z,3.30
2018-08-12T10:20:38.358Z,3.80
2018-08-12T10:21:38.374Z,3.30
2018-08-12T10:22:38.285Z,3.70
2018-08-12T10:23:38.254Z,3.60
2018-08-12T10:24:38.220Z,3.90
2018-08-12T10:25:38.188Z,3.50
2018-08-12T10:26:38.150Z,3.50
2018-08-12T10:27:38.123Z,2.90
2018-08-12T10:28:38.091Z,3.20
2018-08-12T10:29:38.049Z,3.10
2018-08-12T10:30:38.315Z,3.50
2018-08-12T10:31:37.986Z,2.90
2018-08-12T10:32:37.952Z,3.50
2018-08-12T10:33:37.916Z,3.50
2018-08-12T10:34:37.883Z,3.00
2018-08-12T10:35:37.850Z,3.20
2018-08-12T10:36:38.017Z,2.90
2018-08-12T10:37:37.784Z,3.00
2018-08-12T10:38:37.746Z,3.10
2018-08-12T10:39:37.712Z,3.30
2018-08-12T10:40:37.684Z,3.40
2018-08-12T10:41:37.657Z,3.20
2018-08-12T10:42:37.618Z,2.80
2018-08-12T10:43:37.589Z,3.20
2018-08-12T10:44:37.549Z,3.10
2018-08-12T10:45:37.523Z,3.10
2018-08-12T10:46:37.481Z,2.80
2018-08-12T10:47:37.649Z,3.10
2018-08-12T10:48:37.420Z,3.40
2018-08-12T10:49:37.385Z,3.10
2018-08-12T10:50:37.357Z,2.60
2018-08-12T10:51:37.317Z,2.70
2018-08-12T10:52:37.283Z,3.20
2018-08-12T10:53:37.276Z,3.20
2018-08-12T10:54:37.226Z,3.00
2018-08-12T10:55:37.186Z,3.70
2018-08-12T10:56:37.171Z,3.50
2018-08-12T10:57:37.126Z,3.40
2018-08-12T10:58:37.089Z,3.50
2018-08-12T10:59:37.060Z,3.90
2018-08-12T11:00:37.020Z,3.70
2018-08-12T11:01:36.993Z,3.70
2018-08-12T11:02:36.961Z,3.20
2018-08-12T11:03:36.924Z,3.10
2018-08-12T11:04:36.892Z,2.90
2018-08-12T11:05:36.866Z,3.10
2018-08-12T11:06:36.823Z,3.40
2018-08-12T11:07:36.792Z,3.00
2018-08-12T11:08:36.770Z,2.90
2018-08-12T11:09:36.739Z,3.00
2018-08-12T11:10:36.839Z,3.20
2018-08-12T11:11:36.663Z,3.00
2018-08-12T11:12:36.678Z,3.70
2018-08-12T11:13:36.601Z,3.40
2018-08-12T11:14:36.937Z,3.00
2018-08-12T11:15:36.548Z,3.30
2018-08-12T11:16:36.510Z,3.00
2018-08-12T11:17:36.474Z,3.50
2018-08-12T11:18:36.446Z,3.10
2018-08-12T11:19:36.407Z,4.00
2018-08-12T11:20:36.516Z,12.60
2018-08-12T11:21:36.360Z,38.60
2018-08-12T11:22:36.328Z,86.00
2018-08-12T11:23:36.288Z,94.40
2018-08-12T11:24:36.258Z,85.40
2018-08-12T11:25:36.230Z,89.20
2018-08-12T11:26:36.204Z,107.10
2018-08-12T11:27:36.175Z,132.10
2018-08-12T11:28:36.156Z,117.30
2018-08-12T11:29:36.173Z,91.50
2018-08-12T11:30:36.081Z,70.50
2018-08-12T11:31:36.050Z,58.90
2018-08-12T11:32:36.020Z,49.50
2018-08-12T11:33:36.002Z,69.00
2018-08-12T11:34:35.962Z,137.20
2018-08-12T11:35:36.235Z,149.40
2018-08-12T11:36:35.919Z,160.50
2018-08-12T11:37:35.875Z,159.20
2018-08-12T11:38:35.846Z,237.00
2018-08-12T11:39:35.828Z,308.60
2018-08-12T11:40:35.792Z,238.00
2018-08-12T11:41:36.211Z,208.20
2018-08-12T11:42:35.732Z,140.70
2018-08-12T11:43:35.710Z,111.50
2018-08-12T11:44:35.711Z,99.90
2018-08-12T11:45:35.657Z,74.70
2018-08-12T11:46:35.647Z,63.50
2018-08-12T11:47:35.739Z,59.90
2018-08-12T11:48:35.575Z,53.20
2018-08-12T11:49:35.567Z,52.40
2018-08-12T11:50:35.523Z,45.60
2018-08-12T11:51:35.494Z,37.80
2018-08-12T11:52:35.730Z,34.50
2018-08-12T11:53:35.435Z,35.30
2018-08-12T11:54:35.413Z,33.60
2018-08-12T11:55:35.389Z,33.60
2018-08-12T11:56:35.361Z,30.30
2018-08-12T11:57:35.338Z,25.90
2018-08-12T11:58:35.307Z,21.90
2018-08-12T11:59:35.335Z,21.70
2018-08-12T12:00:35.260Z,19.30
2018-08-12T12:01:35.227Z,15.90
2018-08-12T12:02:35.229Z,15.20
2018-08-12T12:03:35.185Z,13.50
2018-08-12T12:04:35.193Z,10.80
2018-08-12T12:05:35.130Z,10.80
2018-08-12T12:06:35.102Z,10.50
2018-08-12T12:07:35.078Z,10.40
2018-08-12T12:08:35.202Z,10.20
2018-08-12T12:09:35.036Z,8.80
2018-08-12T12:10:35.017Z,10.50
2018-08-12T12:11:35.034Z,6.90
2018-08-12T12:12:34.971Z,7.90
2018-08-12T12:13:34.945Z,4.40
2018-08-12T12:14:35.126Z,4.80
2018-08-12T12:15:34.881Z,4.20
2018-08-12T12:16:34.867Z,4.40
2018-08-12T12:17:34.850Z,4.80
2018-08-12T12:18:34.817Z,4.10
2018-08-12T12:19:34.785Z,5.20
2018-08-12T12:20:34.894Z,4.70
2018-08-12T12:21:34.742Z,4.60
2018-08-12T12:22:34.706Z,4.20
2018-08-12T12:23:34.706Z,4.40
2018-08-12T12:24:34.660Z,4.20
2018-08-12T12:25:34.646Z,3.90
2018-08-12T12:26:34.618Z,3.80
2018-08-12T12:27:34.597Z,3.90
2018-08-12T12:28:34.577Z,3.60
2018-08-12T12:29:34.577Z,3.80
2018-08-12T12:30:34.535Z,3.50
2018-08-12T12:31:34.514Z,4.50
2018-08-12T12:32:34.525Z,4.50
2018-08-12T12:33:34.490Z,4.80
2018-08-12T12:34:34.439Z,3.60
2018-08-12T12:35:34.510Z,3.70
2018-08-12T12:36:34.399Z,5.40
2018-08-12T12:37:34.381Z,4.20
2018-08-12T12:38:34.361Z,4.00
2018-08-12T12:39:34.340Z,3.90
2018-08-12T12:40:34.316Z,4.20
2018-08-12T12:41:34.297Z,3.60
2018-08-12T12:42:34.289Z,3.50
2018-08-12T12:43:34.255Z,3.60
2018-08-12T12:44:34.255Z,3.00
2018-08-12T12:45:34.223Z,2.90
2018-08-12T12:46:34.191Z,2.70
2018-08-12T12:47:34.177Z,3.00
2018-08-12T12:48:34.154Z,2.80
2018-08-12T12:49:34.243Z,2.50
2018-08-12T12:50:34.134Z,2.50
2018-08-12T12:51:34.131Z,2.30
2018-08-12T12:52:34.081Z,2.50
2018-08-12T12:53:34.054Z,2.50
2018-08-12T12:54:34.038Z,2.30
2018-08-12T12:55:34.022Z,2.40
2018-08-12T12:56:33.997Z,2.60
2018-08-12T12:57:33.988Z,2.60
2018-08-12T12:58:34.251Z,3.20
2018-08-12T12:59:33.953Z,2.80
2018-08-12T13:00:33.931Z,2.60
2018-08-12T13:01:33.905Z,2.50
2018-08-12T13:02:33.931Z,2.20
2018-08-12T13:03:33.870Z,2.20
2018-08-12T13:04:33.948Z,2.70
2018-08-12T13:05:33.829Z,3.20
2018-08-12T13:06:33.827Z,2.70
2018-08-12T13:07:33.794Z,2.60
2018-08-12T13:08:33.799Z,3.00
2018-08-12T13:09:33.775Z,2.60
2018-08-12T13:10:33.743Z,2.90
2018-08-12T13:11:33.729Z,2.70
2018-08-12T13:12:33.738Z,2.60
2018-08-12T13:13:33.685Z,2.50
2018-08-12T13:14:33.670Z,2.60
2018-08-12T13:15:33.899Z,2.40
2018-08-12T13:16:33.638Z,2.60
2018-08-12T13:17:33.610Z,2.30
2018-08-12T13:18:33.605Z,2.40
2018-08-12T13:19:33.595Z,2.30
2018-08-12T13:20:33.566Z,2.30
2018-08-12T13:21:33.546Z,2.00
2018-08-12T13:22:33.523Z,16.80